createdAt,value
2019-04-01T00:01:47.021Z,102261.17
2019-04-01T00:04:15.465Z,102267.54
2019-04-01T00:06:43.894Z,102271.64
2019-04-01T00:09:12.380Z,102264.67
2019-04-01T00:11:40.736Z,102277.56
2019-04-01T00:14:09.269Z,102270.78
2019-04-01T00:16:37.949Z,102279.70
2019-04-01T00:19:06.320Z,102276.92
2019-04-01T00:21:34.807Z,102278.84
2019-04-01T00:24:03.310Z,102284.14
2019-04-01T00:26:32.287Z,102285.47
2019-04-01T00:29:00.661Z,102279.94
2019-04-01T00:31:29.111Z,102278.45
2019-04-01T00:33:57.832Z,102279.56
2019-04-01T00:36:26.279Z,102277.02
2019-04-01T00:38:54.654Z,102279.78
2019-04-01T00:41:23.186Z,102278.45
2019-04-01T00:43:52.787Z,102284.98
2019-04-01T00:46:21.469Z,102277.23
2019-04-01T00:48:49.954Z,102280.73
2019-04-01T00:51:18.326Z,102284.92
2019-04-01T00:53:46.737Z,102284.59
2019-04-01T00:56:15.298Z,102285.91
2019-04-01T00:58:44.090Z,102284.80
2019-04-01T01:01:12.536Z,102283.47
2019-04-01T01:03:40.912Z,102281.28
2019-04-01T01:06:09.345Z,102280.67
2019-04-01T01:08:37.833Z,102283.56
2019-04-01T01:11:06.273Z,102286.22
2019-04-01T01:13:34.843Z,102288.98
2019-04-01T01:16:03.487Z,102281.74
2019-04-01T01:18:32.214Z,102281.95
2019-04-01T01:21:00.691Z,102283.39
2019-04-01T01:23:29.253Z,102283.49
2019-04-01T01:25:57.705Z,102282.62
2019-04-01T01:28:26.474Z,102280.93
2019-04-01T01:30:55.002Z,102280.06
2019-04-01T01:33:23.528Z,102281.75
2019-04-01T01:35:52.352Z,102277.03
2019-04-01T01:38:20.857Z,102280.30
2019-04-01T01:40:49.336Z,102284.98
2019-04-01T01:43:18.035Z,102278.36
2019-04-01T01:45:46.678Z,102284.28
2019-04-01T01:48:15.325Z,102288.25
2019-04-01T01:50:43.773Z,102286.55
2019-04-01T01:53:12.262Z,102293.02
2019-04-01T01:55:40.640Z,102289.05
2019-04-01T01:58:09.014Z,102290.61
2019-04-01T02:00:38.717Z,102293.84
2019-04-01T02:03:07.429Z,102295.75
2019-04-01T02:05:35.852Z,102304.52
2019-04-01T02:08:04.257Z,102306.22
2019-04-01T02:10:32.759Z,102299.80
2019-04-01T02:13:01.505Z,102307.27
2019-04-01T02:15:30.146Z,102301.94
2019-04-01T02:17:58.548Z,102299.88
2019-04-01T02:20:27.247Z,102307.04
2019-04-01T02:22:55.900Z,102306.33
2019-04-01T02:25:24.309Z,102306.16
2019-04-01T02:27:52.678Z,102303.88
2019-04-01T02:30:21.088Z,102306.91
2019-04-01T02:32:49.521Z,102313.63
2019-04-01T02:35:17.988Z,102311.32
2019-04-01T02:37:46.413Z,102311.69
2019-04-01T02:40:14.951Z,102303.58
2019-04-01T02:42:43.476Z,102308.30
2019-04-01T02:45:12.089Z,102309.83
2019-04-01T02:47:40.557Z,102310.57
2019-04-01T02:50:09.885Z,102307.52
2019-04-01T02:52:38.347Z,102308.67
2019-04-01T02:55:07.932Z,102306.16
2019-04-01T02:57:36.390Z,102309.75
2019-04-01T03:00:06.287Z,102312.77
2019-04-01T03:02:34.703Z,102306.73
2019-04-01T03:05:03.474Z,102309.00
2019-04-01T03:07:32.211Z,102302.62
2019-04-01T03:10:00.749Z,102300.17
2019-04-01T03:12:29.217Z,102308.79
2019-04-01T03:14:57.657Z,102303.83
2019-04-01T03:17:26.355Z,102307.66
2019-04-01T03:19:54.812Z,102313.30
2019-04-01T03:22:23.181Z,102307.86
2019-04-01T03:24:53.751Z,102310.70
2019-04-01T03:27:21.934Z,102301.67
2019-04-01T03:29:50.368Z,102308.48
2019-04-01T03:32:18.855Z,102312.08
2019-04-01T03:34:47.253Z,102303.52
2019-04-01T03:37:15.625Z,102310.44
2019-04-01T03:39:44.109Z,102313.45
2019-04-01T03:42:12.644Z,102315.02
2019-04-01T03:44:41.207Z,102311.04
2019-04-01T03:47:09.654Z,102302.92
2019-04-01T03:49:38.528Z,102307.27
2019-04-01T03:52:10.175Z,102311.09
2019-04-01T03:54:37.076Z,102304.47
2019-04-01T03:57:05.534Z,102308.73
2019-04-01T03:59:34.169Z,102308.83
2019-04-01T04:02:02.690Z,102302.22
2019-04-01T04:04:31.248Z,102304.05
2019-04-01T04:06:59.618Z,102305.09
2019-04-01T04:09:28.036Z,102305.09
2019-04-01T04:11:56.662Z,102308.88
2019-04-01T04:14:25.079Z,102309.86
2019-04-01T04:16:53.831Z,102308.63
2019-04-01T04:19:22.266Z,102306.66
2019-04-01T04:21:50.779Z,102316.13
2019-04-01T04:24:19.238Z,102314.81
2019-04-01T04:26:47.885Z,102317.94
2019-04-01T04:29:16.404Z,102314.44
2019-04-01T04:31:44.902Z,102315.77
2019-04-01T04:34:13.356Z,102311.70
2019-04-01T04:36:41.923Z,102312.27
2019-04-01T04:39:10.676Z,102312.93
2019-04-01T04:41:39.264Z,102315.01
2019-04-01T04:44:07.805Z,102323.32
2019-04-01T04:46:37.182Z,102317.84
2019-04-01T04:49:05.636Z,102318.22
2019-04-01T04:51:34.180Z,102323.55
2019-04-01T04:54:02.729Z,102326.00
2019-04-01T04:56:31.320Z,102330.44
2019-04-01T04:59:00.131Z,102327.14
2019-04-01T05:01:28.693Z,102327.42
2019-04-01T05:03:57.311Z,102330.77
2019-04-01T05:06:25.762Z,102331.48
2019-04-01T05:08:54.260Z,102335.83
2019-04-01T05:11:22.753Z,102337.81
2019-04-01T05:13:51.302Z,102341.34
2019-04-01T05:16:19.914Z,102342.66
2019-04-01T05:18:48.384Z,102340.55
2019-04-01T05:21:18.012Z,102345.84
2019-04-01T05:23:47.236Z,102348.48
2019-04-01T05:26:16.467Z,102352.45
2019-04-01T05:28:46.173Z,102353.55
2019-04-01T05:31:15.405Z,102357.05
2019-04-01T05:33:55.221Z,102362.42
2019-04-01T05:36:15.892Z,102366.02
2019-04-01T05:38:44.399Z,102363.38
2019-04-01T05:41:13.490Z,102365.23
2019-04-01T05:43:42.085Z,102364.09
2019-04-01T05:46:10.844Z,102361.13
2019-04-01T05:48:39.325Z,102359.91
2019-04-01T05:51:07.772Z,102361.42
2019-04-01T05:53:36.336Z,102364.58
2019-04-01T05:56:04.897Z,102376.85
2019-04-01T05:58:33.425Z,102369.13
2019-04-01T06:01:12.325Z,102380.27
2019-04-01T06:03:40.788Z,102374.96
2019-04-01T06:06:09.282Z,102371.65
2019-04-01T06:08:37.771Z,102381.80
2019-04-01T06:11:06.255Z,102382.83
2019-04-01T06:13:35.328Z,102377.55
2019-04-01T06:16:04.562Z,102384.28
2019-04-01T06:18:33.147Z,102378.86
2019-04-01T06:21:01.985Z,102380.98
2019-04-01T06:23:30.455Z,102386.09
2019-04-01T06:25:59.379Z,102387.80
2019-04-01T06:28:27.952Z,102391.20
2019-04-01T06:30:56.472Z,102388.55
2019-04-01T06:33:25.015Z,102391.93
2019-04-01T06:35:53.562Z,102398.42
2019-04-01T06:38:22.139Z,102392.88
2019-04-01T06:40:50.685Z,102392.52
2019-04-01T06:43:19.146Z,102394.33
2019-04-01T06:45:47.663Z,102403.78
2019-04-01T06:48:16.479Z,102393.17
2019-04-01T06:50:45.046Z,102397.15
2019-04-01T06:53:13.587Z,102400.70
2019-04-01T06:55:42.075Z,102404.83
2019-04-01T06:58:12.073Z,102399.03
2019-04-01T07:00:40.777Z,102406.16
2019-04-01T07:03:09.285Z,102405.30
2019-04-01T07:05:37.770Z,102408.34
2019-04-01T07:08:06.296Z,102405.19
2019-04-01T07:10:34.758Z,102411.67
2019-04-01T07:13:03.403Z,102406.88
2019-04-01T07:15:31.912Z,102411.02
2019-04-01T07:18:00.343Z,102408.44
2019-04-01T07:20:28.867Z,102413.91
2019-04-01T07:22:57.368Z,102418.02
2019-04-01T07:25:25.934Z,102413.37
2019-04-01T07:27:54.417Z,102410.98
2019-04-01T07:30:22.906Z,102410.20
2019-04-01T07:32:51.377Z,102409.09
2019-04-01T07:35:19.833Z,102411.22
2019-04-01T07:37:48.355Z,102409.30
2019-04-01T07:40:16.824Z,102407.43
2019-04-01T07:42:45.790Z,102402.28
2019-04-01T07:45:14.365Z,102405.61
2019-04-01T07:47:42.941Z,102396.25
2019-04-01T07:50:12.470Z,102402.63
2019-04-01T07:52:41.324Z,102405.08
2019-04-01T07:55:09.806Z,102404.75
2019-04-01T07:57:38.386Z,102401.91
2019-04-01T08:00:07.874Z,102407.05
2019-04-01T08:02:36.364Z,102407.16
2019-04-01T08:05:05.483Z,102413.40
2019-04-01T08:07:34.192Z,102418.02
2019-04-01T08:10:03.203Z,102418.66
2019-04-01T08:12:31.637Z,102413.04
2019-04-01T08:15:00.400Z,102414.00
2019-04-01T08:17:29.068Z,102421.44
2019-04-01T08:19:57.607Z,102418.05
2019-04-01T08:22:26.130Z,102415.64
2019-04-01T08:24:54.590Z,102415.36
2019-04-01T08:27:23.055Z,102416.72
2019-04-01T08:29:51.608Z,102407.29
2019-04-01T08:32:20.507Z,102404.78
2019-04-01T08:34:49.255Z,102406.09
2019-04-01T08:37:17.738Z,102403.17
2019-04-01T08:39:46.180Z,102403.50
2019-04-01T08:42:14.735Z,102406.00
2019-04-01T08:44:43.246Z,102401.47
2019-04-01T08:47:12.039Z,102399.19
2019-04-01T08:49:40.527Z,102409.30
2019-04-01T08:52:09.006Z,102404.53
2019-04-01T08:54:37.454Z,102397.99
2019-04-01T08:57:05.991Z,102400.84
2019-04-01T08:59:34.523Z,102402.05
2019-04-01T09:02:17.182Z,102404.99
2019-04-01T09:04:34.213Z,102394.38
2019-04-01T09:07:02.751Z,102391.84
2019-04-01T09:09:31.550Z,102395.73
2019-04-01T09:12:00.158Z,102402.67
2019-04-01T09:14:29.583Z,102389.37
2019-04-01T09:16:58.018Z,102391.97
2019-04-01T09:19:26.637Z,102388.20
2019-04-01T09:21:55.095Z,102387.00
2019-04-01T09:24:23.564Z,102379.41
2019-04-01T09:26:52.103Z,102382.38
2019-04-01T09:29:20.649Z,102379.19
2019-04-01T09:31:49.107Z,102383.56
2019-04-01T09:34:17.631Z,102373.91
2019-04-01T09:36:46.103Z,102372.97
2019-04-01T09:39:14.683Z,102372.48
2019-04-01T09:41:43.150Z,102373.50
2019-04-01T09:44:11.507Z,102371.73
2019-04-01T09:46:40.054Z,102362.22
2019-04-01T09:49:08.484Z,102364.82
2019-04-01T09:51:47.863Z,102364.03
2019-04-01T09:54:07.289Z,102360.60
2019-04-01T09:56:35.761Z,102363.57
2019-04-01T09:59:04.299Z,102361.20
2019-04-01T10:01:32.772Z,102355.83
2019-04-01T10:04:01.269Z,102347.41
2019-04-01T10:06:29.772Z,102342.69
2019-04-01T10:08:58.233Z,102340.54
2019-04-01T10:11:26.645Z,102346.58
2019-04-01T10:13:55.207Z,102342.87
2019-04-01T10:16:26.371Z,102334.48
2019-04-01T10:18:53.897Z,102335.97
2019-04-01T10:21:22.415Z,102334.09
2019-04-01T10:23:50.860Z,102338.21
2019-04-01T10:26:19.441Z,102333.12
2019-04-01T10:28:47.986Z,102322.36
2019-04-01T10:31:16.797Z,102322.90
2019-04-01T10:33:45.315Z,102317.61
2019-04-01T10:36:13.872Z,102310.80
2019-04-01T10:38:42.384Z,102315.84
2019-04-01T10:41:10.779Z,102312.59
2019-04-01T10:43:39.251Z,102310.73
2019-04-01T10:46:11.975Z,102298.98
2019-04-01T10:48:38.522Z,102301.89
2019-04-01T10:51:06.985Z,102297.53
2019-04-01T10:53:35.548Z,102294.81
2019-04-01T10:56:04.136Z,102288.67
2019-04-01T10:58:32.709Z,102283.30
2019-04-01T11:01:01.384Z,102286.08
2019-04-01T11:03:29.838Z,102289.69
2019-04-01T11:05:58.214Z,102282.31
2019-04-01T11:08:26.761Z,102276.86
2019-04-01T11:10:55.409Z,102282.55
2019-04-01T11:13:24.031Z,102272.80
2019-04-01T11:15:52.475Z,102271.93
2019-04-01T11:18:20.949Z,102271.41
2019-04-01T11:20:49.668Z,102262.20
2019-04-01T11:23:18.205Z,102262.92
2019-04-01T11:25:47.066Z,102253.75
2019-04-01T11:28:15.637Z,102256.77
2019-04-01T11:30:44.175Z,102257.51
2019-04-01T11:33:12.746Z,102256.22
2019-04-01T11:35:41.422Z,102253.63
2019-04-01T11:38:09.905Z,102241.14
2019-04-01T11:40:38.942Z,102235.92
2019-04-01T11:43:07.733Z,102231.30
2019-04-01T11:45:36.284Z,102234.28
2019-04-01T11:48:04.801Z,102226.05
2019-04-01T11:50:33.403Z,102230.04
2019-04-01T11:53:01.785Z,102220.66
2019-04-01T11:55:30.255Z,102226.34
2019-04-01T11:57:58.775Z,102214.07
2019-04-01T12:00:27.248Z,102213.48
2019-04-01T12:02:55.769Z,102210.76
2019-04-01T12:05:24.515Z,102207.21
2019-04-01T12:07:53.472Z,102201.78
2019-04-01T12:10:22.061Z,102192.03
2019-04-01T12:12:50.591Z,102194.47
2019-04-01T12:15:19.044Z,102195.73
2019-04-01T12:17:47.640Z,102195.75
2019-04-01T12:20:16.165Z,102193.49
2019-04-01T12:22:46.012Z,102188.17
2019-04-01T12:25:14.728Z,102188.12
2019-04-01T12:27:43.209Z,102172.13
2019-04-01T12:30:11.974Z,102185.95
2019-04-01T12:32:40.523Z,102177.17
2019-04-01T12:35:08.979Z,102176.88
2019-04-01T12:37:37.542Z,102165.58
2019-04-01T12:40:07.000Z,102175.50
2019-04-01T12:42:35.930Z,102168.05
2019-04-01T12:45:06.370Z,102160.99
2019-04-01T12:47:35.048Z,102158.25
2019-04-01T12:50:03.820Z,102148.73
2019-04-01T12:52:32.421Z,102150.08
2019-04-01T12:55:01.210Z,102137.80
2019-04-01T12:57:29.631Z,102137.80
2019-04-01T12:59:58.194Z,102132.73
2019-04-01T13:02:26.706Z,102142.19
2019-04-01T13:04:55.260Z,102136.81
2019-04-01T13:07:23.734Z,102131.02
2019-04-01T13:09:52.241Z,102127.02
2019-04-01T13:12:20.734Z,102118.26
2019-04-01T13:14:49.314Z,102109.27
2019-04-01T13:17:17.810Z,102109.30
2019-04-01T13:19:46.809Z,102104.22
2019-04-01T13:22:15.301Z,102097.47
2019-04-01T13:24:43.838Z,102092.03
2019-04-01T13:27:12.354Z,102089.82
2019-04-01T13:29:40.753Z,102081.99
2019-04-01T13:32:09.299Z,102076.28
2019-04-01T13:34:37.758Z,102077.42
2019-04-01T13:37:06.452Z,102064.44
2019-04-01T13:39:35.018Z,102051.92
2019-04-01T13:42:03.458Z,102058.53
2019-04-01T13:44:37.309Z,102061.98
2019-04-01T13:47:02.056Z,102057.38
2019-04-01T13:49:30.876Z,102055.45
2019-04-01T13:52:01.770Z,102050.42
2019-04-01T13:54:29.721Z,102045.47
2019-04-01T13:56:58.623Z,102042.31
2019-04-01T13:59:27.137Z,102039.39
2019-04-01T14:01:56.444Z,102042.94
2019-04-01T14:04:25.497Z,102041.75
2019-04-01T14:06:54.045Z,102024.45
2019-04-01T14:09:22.492Z,102021.47
2019-04-01T14:11:50.983Z,102023.13
2019-04-01T14:14:19.565Z,102027.34
2019-04-01T14:16:48.024Z,102010.17
2019-04-01T14:19:16.466Z,102014.76
2019-04-01T14:21:46.814Z,102006.00
2019-04-01T14:24:16.069Z,102000.84
2019-04-01T14:26:44.952Z,102000.75
2019-04-01T14:29:16.362Z,101990.86
2019-04-01T14:31:43.724Z,101988.59
2019-04-01T14:34:13.883Z,101982.25
2019-04-01T14:36:42.452Z,101980.00
2019-04-01T14:39:10.886Z,101978.39
2019-04-01T14:41:39.395Z,101975.48
2019-04-01T14:44:07.834Z,101963.86
2019-04-01T14:46:36.293Z,101963.25
2019-04-01T14:49:04.994Z,101956.77
2019-04-01T14:51:33.769Z,101959.34
2019-04-01T14:54:02.557Z,101954.17
2019-04-01T14:56:30.926Z,101936.22
2019-04-01T14:58:59.424Z,101944.50
2019-04-01T15:01:27.963Z,101938.54
2019-04-01T15:03:56.445Z,101944.75
2019-04-01T15:06:25.252Z,101939.27
2019-04-01T15:08:53.651Z,101941.83
2019-04-01T15:11:22.103Z,101930.90
2019-04-01T15:13:50.679Z,101926.75
2019-04-01T15:16:19.092Z,101925.14
2019-04-01T15:18:47.809Z,101924.89
2019-04-01T15:21:16.303Z,101918.91
2019-04-01T15:23:44.654Z,101912.06
2019-04-01T15:26:13.132Z,101910.31
2019-04-01T15:28:41.890Z,101906.64
2019-04-01T15:31:10.305Z,101900.97
2019-04-01T15:33:38.700Z,101897.94
2019-04-01T15:36:07.167Z,101891.52
2019-04-01T15:38:35.595Z,101888.38
2019-04-01T15:41:04.201Z,101888.74
2019-04-01T15:43:32.712Z,101888.47
2019-04-01T15:46:04.062Z,101896.11
2019-04-01T15:48:31.305Z,101887.14
2019-04-01T15:50:59.952Z,101883.69
2019-04-01T15:53:28.371Z,101881.81
2019-04-01T15:55:56.892Z,101888.58
2019-04-01T15:58:25.634Z,101876.83
2019-04-01T16:00:54.390Z,101865.79
2019-04-01T16:03:22.986Z,101870.91
2019-04-01T16:05:51.640Z,101862.09
2019-04-01T16:08:19.993Z,101862.31
2019-04-01T16:10:50.223Z,101863.02
2019-04-01T16:13:19.692Z,101850.31
2019-04-01T16:15:48.148Z,101855.69
2019-04-01T16:18:17.271Z,101859.70
2019-04-01T16:20:45.867Z,101856.20
2019-04-01T16:23:14.307Z,101849.80
2019-04-01T16:25:42.811Z,101851.67
2019-04-01T16:28:11.417Z,101852.65
2019-04-01T16:30:39.852Z,101843.44
2019-04-01T16:33:08.937Z,101841.09
2019-04-01T16:35:37.328Z,101844.27
2019-04-01T16:38:05.910Z,101842.91
2019-04-01T16:40:34.452Z,101833.20
2019-04-01T16:43:03.051Z,101840.91
2019-04-01T16:45:31.593Z,101841.92
2019-04-01T16:48:00.251Z,101837.39
2019-04-01T16:50:28.840Z,101838.36
2019-04-01T16:52:58.203Z,101839.16
2019-04-01T16:55:27.348Z,101842.67
2019-04-01T16:57:55.993Z,101842.64
2019-04-01T17:00:25.970Z,101837.11
2019-04-01T17:02:54.820Z,101834.95
2019-04-01T17:05:28.985Z,101840.47
2019-04-01T17:07:57.454Z,101840.78
2019-04-01T17:10:26.021Z,101830.91
2019-04-01T17:12:54.564Z,101841.92
2019-04-01T17:15:23.242Z,101841.39
2019-04-01T17:17:51.750Z,101841.70
2019-04-01T17:20:20.422Z,101841.20
2019-04-01T17:22:49.025Z,101839.03
2019-04-01T17:25:17.529Z,101844.38
2019-04-01T17:27:45.989Z,101838.68
2019-04-01T17:30:16.243Z,101839.33
2019-04-01T17:32:44.793Z,101833.25
2019-04-01T17:35:13.591Z,101835.42
2019-04-01T17:37:42.598Z,101833.59
2019-04-01T17:40:11.966Z,101837.94
2019-04-01T17:42:40.416Z,101838.02
2019-04-01T17:45:23.661Z,101832.08
2019-04-01T17:47:52.141Z,101834.45
2019-04-01T17:50:20.650Z,101832.41
2019-04-01T17:52:49.432Z,101835.39
2019-04-01T17:55:18.113Z,101836.72
2019-04-01T17:57:46.684Z,101836.86
2019-04-01T18:00:17.863Z,101838.35
2019-04-01T18:02:46.783Z,101835.38
2019-04-01T18:05:18.136Z,101835.67
2019-04-01T18:07:47.025Z,101843.64
2019-04-01T18:10:16.037Z,101844.97
2019-04-01T18:12:45.256Z,101843.63
2019-04-01T18:15:14.153Z,101842.09
2019-04-01T18:17:42.684Z,101847.56
2019-04-01T18:20:11.318Z,101852.56
2019-04-01T18:22:39.770Z,101853.89
2019-04-01T18:25:08.411Z,101855.50
2019-04-01T18:27:36.891Z,101856.76
2019-04-01T18:30:09.455Z,101854.04
2019-04-01T18:32:37.843Z,101861.69
2019-04-01T18:35:07.081Z,101856.05
2019-04-01T18:37:39.118Z,101862.96
2019-04-01T18:42:53.724Z,101855.28
2019-04-01T18:45:22.711Z,101850.84
2019-04-01T18:47:51.334Z,101861.23
2019-04-01T18:50:19.770Z,101859.00
2019-04-01T18:52:48.412Z,101860.59
2019-04-01T18:55:16.915Z,101861.77
2019-04-01T18:57:47.311Z,101856.36
2019-04-01T19:00:24.725Z,101863.67
2019-04-01T19:02:55.462Z,101862.57
2019-04-01T19:05:23.960Z,101858.85
2019-04-01T19:07:52.509Z,101864.16
2019-04-01T19:10:23.923Z,101865.14
2019-04-01T19:13:05.014Z,101861.49
2019-04-01T19:15:23.493Z,101864.54
2019-04-01T19:17:55.482Z,101862.94
2019-04-01T19:20:24.100Z,101863.33
2019-04-01T19:22:53.474Z,101858.88
2019-04-01T19:25:23.352Z,101866.39
2019-04-01T19:27:51.952Z,101859.38
2019-04-01T19:30:20.478Z,101864.56
2019-04-01T19:32:49.827Z,101854.89
2019-04-01T19:35:18.696Z,101859.38
2019-04-01T19:37:47.076Z,101860.33
2019-04-01T19:40:15.591Z,101864.92
2019-04-01T19:42:44.108Z,101854.84
2019-04-01T19:45:13.485Z,101860.03
2019-04-01T19:47:42.067Z,101858.42
2019-04-01T19:50:10.786Z,101855.99
2019-04-01T19:52:39.543Z,101855.33
2019-04-01T19:55:08.298Z,101850.00
2019-04-01T19:57:36.692Z,101850.51
2019-04-01T20:00:09.724Z,101852.33
2019-04-01T20:02:38.194Z,101843.37
2019-04-01T20:05:08.740Z,101843.02
2019-04-01T20:07:38.548Z,101846.39
2019-04-01T20:10:07.305Z,101841.92
2019-04-01T20:12:35.909Z,101843.25
2019-04-01T20:15:09.396Z,101842.14
2019-04-01T20:17:39.910Z,101848.89
2019-04-01T20:20:08.720Z,101839.44
2019-04-01T20:22:37.163Z,101846.94
2019-04-01T20:25:07.724Z,101845.70
2019-04-01T20:27:36.222Z,101841.62
2019-04-01T20:30:09.748Z,101844.56
2019-04-01T20:32:38.303Z,101837.58
2019-04-01T20:35:08.188Z,101843.53
2019-04-01T20:37:37.006Z,101839.23
2019-04-01T20:40:08.529Z,101835.59
2019-04-01T20:42:37.078Z,101833.51
2019-04-01T20:45:10.911Z,101834.30
2019-04-01T20:47:38.949Z,101828.05
2019-04-01T20:50:11.138Z,101822.95
2019-04-01T20:52:41.606Z,101822.54
2019-04-01T20:55:10.350Z,101826.53
2019-04-01T20:57:38.939Z,101831.99
2019-04-01T21:00:09.477Z,101818.77
2019-04-01T21:02:38.629Z,101830.03
2019-04-01T21:05:08.635Z,101818.36
2019-04-01T21:07:37.072Z,101816.19
2019-04-01T21:10:07.343Z,101822.62
2019-04-01T21:12:36.144Z,101807.08
2019-04-01T21:15:09.027Z,101811.20
2019-04-01T21:17:37.670Z,101807.08
2019-04-01T21:20:07.657Z,101804.68
2019-04-01T21:22:36.904Z,101799.66
2019-04-01T21:25:06.910Z,101802.92
2019-04-01T21:27:35.352Z,101797.73
2019-04-01T21:30:06.336Z,101795.30
2019-04-01T21:32:35.135Z,101799.98
2019-04-01T21:35:03.892Z,101781.84
2019-04-01T21:37:32.429Z,101786.53
2019-04-01T21:40:00.946Z,101783.13
2019-04-01T21:42:29.398Z,101784.52
2019-04-01T21:44:57.998Z,101780.67
2019-04-01T21:47:28.031Z,101783.63
2019-04-01T21:49:56.527Z,101776.14
2019-04-01T21:52:25.012Z,101773.61
2019-04-01T21:54:54.142Z,101779.74
2019-04-01T21:57:23.109Z,101774.36
2019-04-01T21:59:51.739Z,101768.69
2019-04-01T22:02:20.962Z,101769.80
2019-04-01T22:04:49.315Z,101762.08
2019-04-01T22:07:17.788Z,101760.48
2019-04-01T22:09:46.298Z,101761.43
2019-04-01T22:12:14.734Z,101753.94
2019-04-01T22:14:43.528Z,101761.49
2019-04-01T22:17:12.040Z,101751.22
2019-04-01T22:19:41.184Z,101749.53
2019-04-01T22:22:09.649Z,101741.20
2019-04-01T22:24:38.296Z,101743.86
2019-04-01T22:27:06.743Z,101742.14
2019-04-01T22:29:35.967Z,101738.03
2019-04-01T22:32:04.626Z,101733.75
2019-04-01T22:34:33.161Z,101729.27
2019-04-01T22:37:01.778Z,101726.94
2019-04-01T22:39:36.261Z,101729.39
2019-04-01T22:42:06.523Z,101725.05
2019-04-01T22:44:35.314Z,101723.72
2019-04-01T22:47:03.829Z,101719.64
2019-04-01T22:49:32.219Z,101722.17
2019-04-01T22:52:00.598Z,101728.08
2019-04-01T22:54:30.206Z,101719.75
2019-04-01T22:56:59.636Z,101713.73
2019-04-01T22:59:27.987Z,101712.14
2019-04-01T23:01:59.340Z,101709.52
2019-04-01T23:04:29.553Z,101709.00
2019-04-01T23:06:57.988Z,101703.52
2019-04-01T23:09:26.448Z,101696.16
2019-04-01T23:11:54.910Z,101691.70
2019-04-01T23:14:23.503Z,101694.61
2019-04-01T23:16:51.941Z,101693.77
2019-04-01T23:19:20.406Z,101702.70
2019-04-01T23:21:48.854Z,101703.11
2019-04-01T23:24:17.229Z,101695.40
2019-04-01T23:26:45.994Z,101692.44
2019-04-01T23:29:14.500Z,101692.59
2019-04-01T23:31:43.011Z,101694.89
2019-04-01T23:34:11.514Z,101689.60
2019-04-01T23:36:40.165Z,101686.95
2019-04-01T23:39:09.440Z,101680.72
2019-04-01T23:41:37.825Z,101680.47
2019-04-01T23:44:06.252Z,101680.23
2019-04-01T23:46:34.770Z,101672.20
2019-04-01T23:49:03.279Z,101668.34
2019-04-01T23:51:31.756Z,101673.66
2019-04-01T23:54:00.106Z,101669.36
2019-04-01T23:56:28.553Z,101665.22
2019-04-01T23:58:56.944Z,101664.62
